createdAt,value
2019-04-05T00:00:12.192Z,4.50
2019-04-05T00:02:41.920Z,4.50
2019-04-05T00:05:12.137Z,4.50
2019-04-05T00:07:41.854Z,4.40
2019-04-05T00:10:11.924Z,4.30
2019-04-05T00:12:41.628Z,4.40
2019-04-05T00:15:15.475Z,4.50
2019-04-05T00:17:42.666Z,4.40
2019-04-05T00:20:12.456Z,4.40
2019-04-05T00:22:42.213Z,4.50
2019-04-05T00:25:12.076Z,4.50
2019-04-05T00:27:41.728Z,4.50
2019-04-05T00:30:11.757Z,4.40
2019-04-05T00:32:41.339Z,4.40
2019-04-05T00:35:11.220Z,4.50
2019-04-05T00:37:40.853Z,4.50
2019-04-05T00:40:10.837Z,4.30
2019-04-05T00:42:40.528Z,4.40
2019-04-05T00:45:10.419Z,4.40
2019-04-05T00:47:41.189Z,4.40
2019-04-05T00:50:11.375Z,4.40
2019-04-05T00:52:41.069Z,4.50
2019-04-05T00:55:11.148Z,4.50
2019-04-05T00:57:40.916Z,4.50
2019-04-05T01:00:13.211Z,4.50
2019-04-05T01:02:42.822Z,4.60
2019-04-05T01:05:12.607Z,4.50
2019-04-05T01:07:42.466Z,4.40
2019-04-05T01:10:12.855Z,4.50
2019-04-05T01:12:42.467Z,4.50
2019-04-05T01:15:12.854Z,4.40
2019-04-05T01:17:42.543Z,4.50
2019-04-05T01:20:13.932Z,4.50
2019-04-05T01:22:46.146Z,4.50
2019-04-05T01:25:15.901Z,4.60
2019-04-05T01:27:48.317Z,4.50
2019-04-05T01:30:17.468Z,4.50
2019-04-05T01:32:48.046Z,4.50
2019-04-05T01:35:18.126Z,4.50
2019-04-05T01:37:48.217Z,4.50
2019-04-05T01:40:18.098Z,4.40
2019-04-05T01:42:48.456Z,4.30
2019-04-05T01:45:18.176Z,4.40
2019-04-05T01:47:47.868Z,4.50
2019-04-05T01:50:17.658Z,4.50
2019-04-05T01:52:48.008Z,4.50
2019-04-05T01:55:17.731Z,4.50
2019-04-05T01:57:47.760Z,4.40
2019-04-05T02:00:17.853Z,4.40
2019-04-05T02:02:47.847Z,4.30
2019-04-05T02:05:17.645Z,4.40
2019-04-05T02:07:47.396Z,4.40
2019-04-05T02:10:17.109Z,4.40
2019-04-05T02:12:46.868Z,4.40
2019-04-05T02:15:27.993Z,4.40
2019-04-05T02:17:58.053Z,4.40
2019-04-05T02:20:27.838Z,4.40
2019-04-05T02:22:57.692Z,4.40
2019-04-05T02:25:27.484Z,4.30
2019-04-05T02:27:57.231Z,4.30
2019-04-05T02:30:27.414Z,4.40
2019-04-05T02:32:57.278Z,4.30
2019-04-05T02:35:27.061Z,4.40
2019-04-05T02:37:56.760Z,4.40
2019-04-05T02:40:28.219Z,4.40
2019-04-05T02:43:00.545Z,4.40
2019-04-05T02:45:33.993Z,4.40
2019-04-05T02:48:05.824Z,4.30
2019-04-05T02:50:38.382Z,4.30
2019-04-05T02:53:11.412Z,4.30
2019-04-05T02:56:03.344Z,4.30
2019-04-05T02:58:34.514Z,4.30
2019-04-05T03:01:04.405Z,4.30
2019-04-05T03:03:34.696Z,4.30
2019-04-05T03:06:06.752Z,4.40
2019-04-05T03:08:37.397Z,4.40
2019-04-05T03:11:13.284Z,4.40
2019-04-05T03:13:48.802Z,4.40
2019-04-05T03:16:38.619Z,4.40
2019-04-05T03:19:00.597Z,4.40
2019-04-05T03:21:31.885Z,4.40
2019-04-05T03:24:04.822Z,4.40
2019-04-05T03:26:37.390Z,4.40
2019-04-05T03:29:09.812Z,4.80
2019-04-05T03:31:39.905Z,4.80
2019-04-05T03:34:09.615Z,4.70
2019-04-05T03:36:39.598Z,4.70
2019-04-05T03:39:10.132Z,4.60
2019-04-05T03:41:40.109Z,4.50
2019-04-05T03:44:10.572Z,4.60
2019-04-05T03:46:55.481Z,4.60
2019-04-05T03:49:12.433Z,4.60
2019-04-05T03:51:42.620Z,4.50
2019-04-05T03:54:12.688Z,4.40
2019-04-05T03:56:42.671Z,4.40
2019-04-05T03:59:12.536Z,4.40
2019-04-05T04:01:42.436Z,4.30
2019-04-05T04:04:12.132Z,4.20
2019-04-05T04:06:42.313Z,4.20
2019-04-05T04:09:12.077Z,4.20
2019-04-05T04:11:42.164Z,4.20
2019-04-05T04:14:12.358Z,4.30
2019-04-05T04:16:42.555Z,4.30
2019-04-05T04:19:14.086Z,4.50
2019-04-05T04:21:52.623Z,4.40
2019-04-05T04:24:22.507Z,4.30
2019-04-05T04:26:52.692Z,4.20
2019-04-05T04:29:22.377Z,4.40
2019-04-05T04:31:52.394Z,4.50
2019-04-05T04:34:22.129Z,4.50
2019-04-05T04:36:52.113Z,4.60
2019-04-05T04:39:21.994Z,4.60
2019-04-05T04:41:52.384Z,4.50
2019-04-05T04:44:22.275Z,4.40
2019-04-05T04:46:52.153Z,4.50
2019-04-05T04:49:22.256Z,4.40
2019-04-05T04:51:52.348Z,4.50
2019-04-05T04:54:22.210Z,4.50
2019-04-05T04:56:52.090Z,4.60
2019-04-05T04:59:22.145Z,4.50
2019-04-05T05:01:51.867Z,4.30
2019-04-05T05:04:21.552Z,4.30
2019-04-05T05:06:51.433Z,4.20
2019-04-05T05:09:22.087Z,4.20
2019-04-05T05:11:51.867Z,4.20
2019-04-05T05:14:21.829Z,4.10
2019-04-05T05:16:51.643Z,4.10
2019-04-05T05:19:22.029Z,4.10
2019-04-05T05:21:52.017Z,4.10
2019-04-05T05:24:21.914Z,4.20
2019-04-05T05:26:51.757Z,4.10
2019-04-05T05:29:21.889Z,4.20
2019-04-05T05:31:51.811Z,4.30
2019-04-05T05:34:21.605Z,4.30
2019-04-05T05:36:51.313Z,4.50
2019-04-05T05:39:21.076Z,4.60
2019-04-05T05:41:50.965Z,4.60
2019-04-05T05:44:20.657Z,4.60
2019-04-05T05:46:50.440Z,4.30
2019-04-05T05:49:20.069Z,4.30
2019-04-05T05:51:50.088Z,4.40
2019-04-05T05:54:19.701Z,4.30
2019-04-05T05:56:49.340Z,4.20
2019-04-05T05:59:19.082Z,4.30
2019-04-05T06:01:48.795Z,4.30
2019-04-05T06:04:18.420Z,4.40
2019-04-05T06:06:48.233Z,4.40
2019-04-05T06:09:17.861Z,4.60
2019-04-05T06:11:47.521Z,4.60
2019-04-05T06:14:17.144Z,4.70
2019-04-05T06:16:46.938Z,4.80
2019-04-05T06:19:16.660Z,4.70
2019-04-05T06:21:46.292Z,4.70
2019-04-05T06:24:15.938Z,4.80
2019-04-05T06:26:45.561Z,4.70
2019-04-05T06:29:15.205Z,4.80
2019-04-05T06:31:44.824Z,4.90
2019-04-05T06:34:14.541Z,5.00
2019-04-05T06:36:44.161Z,5.00
2019-04-05T06:39:13.820Z,5.10
2019-04-05T06:41:43.457Z,5.10
2019-04-05T06:44:13.110Z,5.00
2019-04-05T06:46:42.730Z,5.10
2019-04-05T06:49:12.447Z,5.10
2019-04-05T06:51:42.140Z,5.30
2019-04-05T06:54:11.785Z,5.30
2019-04-05T06:56:41.414Z,5.40
2019-04-05T06:59:11.160Z,5.40
2019-04-05T07:01:40.784Z,5.50
2019-04-05T07:04:10.431Z,5.30
2019-04-05T07:06:40.056Z,5.20
2019-04-05T07:09:11.322Z,5.20
2019-04-05T07:11:40.951Z,5.40
2019-04-05T07:14:10.593Z,5.60
2019-04-05T07:16:40.354Z,5.70
2019-04-05T07:19:10.068Z,5.80
2019-04-05T07:21:39.696Z,5.70
2019-04-05T07:24:09.405Z,5.50
2019-04-05T07:26:39.027Z,5.60
2019-04-05T07:29:08.675Z,5.70
2019-04-05T07:31:38.302Z,5.50
2019-04-05T07:34:07.941Z,5.40
2019-04-05T07:36:37.565Z,5.60
2019-04-05T07:39:07.655Z,5.40
2019-04-05T07:41:37.273Z,5.70
2019-04-05T07:44:06.920Z,5.80
2019-04-05T07:46:36.544Z,6.00
2019-04-05T07:49:06.260Z,6.20
2019-04-05T07:51:35.963Z,6.40
2019-04-05T07:54:05.665Z,6.40
2019-04-05T07:56:35.287Z,6.40
2019-04-05T07:59:05.002Z,6.40
2019-04-05T08:01:34.620Z,6.30
2019-04-05T08:04:04.610Z,6.10
2019-04-05T08:06:36.073Z,6.30
2019-04-05T08:09:12.830Z,6.30
2019-04-05T08:11:44.388Z,6.30
2019-04-05T08:14:18.029Z,6.40
2019-04-05T08:16:47.324Z,6.40
2019-04-05T08:19:17.072Z,6.20
2019-04-05T08:21:46.769Z,6.00
2019-04-05T08:24:16.416Z,6.00
2019-04-05T08:26:46.038Z,6.10
2019-04-05T08:29:15.684Z,6.30
2019-04-05T08:31:45.305Z,6.20
2019-04-05T08:34:15.024Z,6.10
2019-04-05T08:36:44.649Z,6.20
2019-04-05T08:39:14.293Z,6.30
2019-04-05T08:41:43.920Z,6.60
2019-04-05T08:44:13.632Z,6.50
2019-04-05T08:46:43.256Z,6.50
2019-04-05T08:49:12.915Z,7.00
2019-04-05T08:51:42.608Z,7.20
2019-04-05T08:54:12.266Z,7.50
2019-04-05T08:56:41.912Z,7.60
2019-04-05T08:59:11.532Z,7.50
2019-04-05T09:01:41.173Z,7.80
2019-04-05T09:04:10.871Z,8.20
2019-04-05T09:06:40.515Z,8.20
2019-04-05T09:09:10.161Z,7.90
2019-04-05T09:11:39.806Z,8.00
2019-04-05T09:14:09.424Z,8.40
2019-04-05T09:16:39.068Z,8.20
2019-04-05T09:19:08.754Z,8.30
2019-04-05T09:21:40.524Z,8.20
2019-04-05T09:24:09.636Z,8.30
2019-04-05T09:26:39.281Z,8.40
2019-04-05T09:29:09.492Z,8.50
2019-04-05T09:31:39.263Z,8.70
2019-04-05T09:34:08.898Z,8.60
2019-04-05T09:36:38.534Z,8.80
2019-04-05T09:39:13.857Z,8.60
2019-04-05T09:41:41.320Z,8.40
2019-04-05T09:44:10.936Z,8.80
2019-04-05T09:46:46.931Z,9.00
2019-04-05T09:49:11.887Z,9.00
2019-04-05T09:51:41.525Z,9.40
2019-04-05T09:54:11.140Z,9.90
2019-04-05T09:56:40.780Z,9.20
2019-04-05T09:59:10.399Z,9.40
2019-04-05T10:01:40.036Z,9.40
2019-04-05T10:04:09.653Z,9.50
2019-04-05T10:06:39.427Z,9.40
2019-04-05T10:09:09.457Z,9.30
2019-04-05T10:11:39.112Z,8.70
2019-04-05T10:14:08.788Z,8.70
2019-04-05T10:16:38.419Z,8.80
2019-04-05T10:19:08.096Z,9.20
2019-04-05T10:21:37.731Z,9.10
2019-04-05T10:24:07.352Z,9.20
2019-04-05T10:26:36.980Z,9.50
2019-04-05T10:29:06.624Z,9.20
2019-04-05T10:31:36.260Z,9.30
2019-04-05T10:34:05.877Z,9.50
2019-04-05T10:36:35.519Z,10.10
2019-04-05T10:39:08.495Z,10.00
2019-04-05T10:41:38.089Z,9.80
2019-04-05T10:44:09.495Z,9.80
2019-04-05T10:46:39.125Z,9.50
2019-04-05T10:49:08.740Z,9.50
2019-04-05T10:51:38.386Z,9.40
2019-04-05T10:54:09.418Z,9.00
2019-04-05T10:56:39.433Z,8.80
2019-04-05T10:59:09.066Z,8.70
2019-04-05T11:01:38.705Z,8.40
2019-04-05T11:04:08.324Z,8.70
2019-04-05T11:06:37.972Z,8.50
2019-04-05T11:09:08.345Z,8.50
2019-04-05T11:11:37.986Z,8.80
2019-04-05T11:14:13.626Z,9.20
2019-04-05T11:16:38.854Z,9.20
2019-04-05T11:19:08.471Z,9.20
2019-04-05T11:21:38.108Z,9.20
2019-04-05T11:24:07.750Z,8.90
2019-04-05T11:26:37.356Z,8.90
2019-04-05T11:29:07.168Z,8.70
2019-04-05T11:31:36.800Z,8.80
2019-04-05T11:34:06.412Z,9.00
2019-04-05T11:36:36.684Z,8.90
2019-04-05T11:39:08.644Z,8.60
2019-04-05T11:41:40.529Z,8.60
2019-04-05T11:44:10.385Z,8.80
2019-04-05T11:46:40.741Z,9.00
2019-04-05T11:49:10.448Z,9.00
2019-04-05T11:51:43.036Z,9.00
2019-04-05T11:54:11.697Z,9.10
2019-04-05T11:56:42.652Z,9.10
2019-04-05T11:59:15.559Z,8.80
2019-04-05T12:01:46.954Z,9.00
2019-04-05T12:04:16.562Z,9.00
2019-04-05T12:06:46.217Z,8.90
2019-04-05T12:09:15.953Z,8.80
2019-04-05T12:11:46.441Z,9.10
2019-04-05T12:14:29.344Z,9.40
2019-04-05T12:16:47.694Z,9.50
2019-04-05T12:19:17.349Z,9.20
2019-04-05T12:21:46.957Z,9.50
2019-04-05T12:24:16.597Z,9.20
2019-04-05T12:26:46.284Z,9.20
2019-04-05T12:29:15.921Z,9.20
2019-04-05T12:31:45.534Z,9.50
2019-04-05T12:34:15.169Z,9.60
2019-04-05T12:36:44.789Z,9.80
2019-04-05T12:39:14.536Z,9.80
2019-04-05T12:41:45.071Z,9.70
2019-04-05T12:44:15.518Z,9.50
2019-04-05T12:46:45.898Z,9.50
2019-04-05T12:49:16.005Z,9.50
2019-04-05T12:51:46.202Z,9.70
2019-04-05T12:54:16.063Z,10.20
2019-04-05T12:56:45.785Z,10.20
2019-04-05T12:59:15.438Z,10.20
2019-04-05T13:01:45.521Z,9.90
2019-04-05T13:04:16.188Z,10.30
2019-04-05T13:06:45.875Z,10.30
2019-04-05T13:09:15.522Z,10.30
2019-04-05T13:11:45.147Z,10.00
2019-04-05T13:14:14.788Z,10.30
2019-04-05T13:16:44.405Z,10.50
2019-04-05T13:19:14.059Z,10.40
2019-04-05T13:21:43.660Z,10.30
2019-04-05T13:24:13.300Z,10.40
2019-04-05T13:26:42.923Z,10.40
2019-04-05T13:29:12.560Z,10.90
2019-04-05T13:31:42.172Z,11.00
2019-04-05T13:34:11.817Z,10.70
2019-04-05T13:36:41.436Z,11.00
2019-04-05T13:39:11.153Z,11.80
2019-04-05T13:41:40.845Z,12.50
2019-04-05T13:44:10.487Z,12.30
2019-04-05T13:46:42.544Z,12.20
2019-04-05T13:49:11.554Z,11.80
2019-04-05T13:51:42.175Z,11.40
2019-04-05T13:54:12.527Z,11.30
2019-04-05T13:56:42.140Z,10.60
2019-04-05T13:59:11.852Z,10.80
2019-04-05T14:01:41.476Z,11.00
2019-04-05T14:04:11.111Z,11.10
2019-04-05T14:06:40.738Z,10.90
2019-04-05T14:09:10.899Z,11.10
2019-04-05T14:11:40.485Z,11.20
2019-04-05T14:14:12.175Z,11.00
2019-04-05T14:16:42.952Z,10.90
2019-04-05T14:19:12.635Z,10.60
2019-04-05T14:21:47.420Z,10.50
2019-04-05T14:24:13.526Z,10.70
2019-04-05T14:26:43.675Z,10.90
2019-04-05T14:29:13.491Z,10.90
2019-04-05T14:31:43.111Z,10.90
2019-04-05T14:34:12.749Z,10.70
2019-04-05T14:36:42.369Z,10.70
2019-04-05T14:39:12.185Z,10.70
2019-04-05T14:41:41.796Z,10.60
2019-04-05T14:44:14.391Z,10.50
2019-04-05T14:46:42.680Z,10.30
2019-04-05T14:49:12.392Z,10.90
2019-04-05T14:51:52.615Z,11.00
2019-04-05T14:54:13.352Z,11.00
2019-04-05T14:56:42.964Z,10.70
2019-04-05T14:59:12.904Z,10.70
2019-04-05T15:01:42.552Z,10.40
2019-04-05T15:04:12.304Z,10.10
2019-04-05T15:06:42.080Z,10.00
2019-04-05T15:09:11.768Z,10.00
2019-04-05T15:11:41.404Z,10.00
2019-04-05T15:14:11.020Z,9.90
2019-04-05T15:16:40.661Z,10.10
2019-04-05T15:19:10.384Z,10.10
2019-04-05T15:21:40.024Z,10.10
2019-04-05T15:24:09.644Z,10.10
2019-04-05T15:26:39.284Z,10.20
2019-04-05T15:29:10.168Z,10.30
2019-04-05T15:31:39.812Z,10.40
2019-04-05T15:34:09.432Z,10.30
2019-04-05T15:36:39.077Z,10.30
2019-04-05T15:39:09.900Z,10.30
2019-04-05T15:41:39.553Z,10.30
2019-04-05T15:44:09.172Z,10.10
2019-04-05T15:46:38.810Z,10.10
2019-04-05T15:49:08.513Z,10.20
2019-04-05T15:51:38.231Z,10.40
2019-04-05T15:54:07.856Z,10.60
2019-04-05T15:56:37.525Z,10.80
2019-04-05T15:59:07.213Z,10.70
2019-04-05T16:01:37.132Z,10.30
2019-04-05T16:04:06.820Z,10.30
2019-04-05T16:06:38.964Z,10.20
2019-04-05T16:09:09.549Z,10.20
2019-04-05T16:11:39.332Z,10.10
2019-04-05T16:14:09.015Z,10.10
2019-04-05T16:16:38.664Z,10.00
2019-04-05T16:19:08.355Z,10.10
2019-04-05T16:21:38.005Z,10.10
2019-04-05T16:24:07.629Z,10.10
2019-04-05T16:26:37.468Z,10.00
2019-04-05T16:29:07.202Z,9.90
2019-04-05T16:31:36.841Z,9.80
2019-04-05T16:34:06.637Z,9.90
2019-04-05T16:36:36.289Z,10.00
2019-04-05T16:39:08.983Z,9.90
2019-04-05T16:41:38.622Z,9.80
2019-04-05T16:44:08.248Z,9.80
2019-04-05T16:46:37.885Z,9.80
2019-04-05T16:49:07.556Z,9.80
2019-04-05T16:51:37.200Z,9.70
2019-04-05T16:54:06.813Z,9.70
2019-04-05T16:56:36.525Z,9.70
2019-04-05T16:59:06.571Z,9.70
2019-04-05T17:01:36.211Z,9.70
2019-04-05T17:04:05.892Z,9.60
2019-04-05T17:06:35.533Z,9.50
2019-04-05T17:09:07.524Z,9.50
2019-04-05T17:11:37.432Z,9.50
2019-04-05T17:14:07.293Z,9.40
2019-04-05T17:16:36.945Z,9.50
2019-04-05T17:19:07.603Z,9.60
2019-04-05T17:21:37.249Z,9.60
2019-04-05T17:24:07.009Z,9.60
2019-04-05T17:26:36.652Z,9.50
2019-04-05T17:29:06.348Z,9.40
2019-04-05T17:31:35.985Z,9.40
2019-04-05T17:34:05.681Z,9.40
2019-04-05T17:36:35.396Z,9.40
2019-04-05T17:39:07.382Z,9.30
2019-04-05T17:41:37.209Z,9.30
2019-04-05T17:44:08.061Z,9.30
2019-04-05T17:46:37.869Z,9.30
2019-04-05T17:49:07.743Z,9.20
2019-04-05T17:51:37.536Z,9.20
2019-04-05T17:54:07.234Z,9.20
2019-04-05T17:56:36.894Z,9.20
2019-04-05T17:59:06.651Z,9.20
2019-04-05T18:01:38.658Z,9.10
2019-04-05T18:04:07.557Z,9.10
2019-04-05T18:06:37.200Z,9.10
2019-04-05T18:09:07.591Z,9.10
2019-04-05T18:11:37.236Z,9.00
2019-04-05T18:14:06.861Z,9.00
2019-04-05T18:16:36.476Z,8.90
2019-04-05T18:19:06.311Z,8.90
2019-04-05T18:21:36.219Z,8.80
2019-04-05T18:24:05.924Z,8.70
2019-04-05T18:26:35.541Z,8.80
2019-04-05T18:29:05.544Z,8.80
2019-04-05T18:31:36.102Z,8.80
2019-04-05T18:34:05.880Z,8.80
2019-04-05T18:36:35.565Z,8.70
2019-04-05T18:39:06.956Z,8.70
2019-04-05T18:41:36.625Z,8.70
2019-04-05T18:44:06.273Z,8.60
2019-04-05T18:46:35.891Z,8.50
2019-04-05T18:49:05.747Z,8.50
2019-04-05T18:51:35.360Z,8.50
2019-04-05T18:54:05.533Z,8.40
2019-04-05T18:56:35.149Z,8.30
2019-04-05T18:59:04.960Z,8.20
2019-04-05T19:01:34.576Z,8.20
2019-04-05T19:04:05.633Z,8.10
2019-04-05T19:06:35.389Z,8.10
2019-04-05T19:09:07.472Z,7.90
2019-04-05T19:11:37.157Z,7.80
2019-04-05T19:14:06.798Z,7.80
2019-04-05T19:16:36.416Z,7.80
2019-04-05T19:19:06.088Z,8.00
2019-04-05T19:21:35.696Z,8.00
2019-04-05T19:24:05.771Z,7.90
2019-04-05T19:26:35.385Z,7.90
2019-04-05T19:29:05.443Z,7.80
2019-04-05T19:49:14.764Z,7.70
2019-04-05T19:51:44.381Z,7.40
2019-04-05T19:54:14.019Z,7.40
2019-04-05T19:56:43.675Z,7.50
2019-04-05T19:59:13.276Z,7.50
2019-04-05T20:01:42.899Z,7.50
2019-04-05T20:04:12.547Z,7.40
2019-04-05T20:06:42.232Z,7.30
2019-04-05T20:09:12.061Z,7.30
2019-04-05T20:11:41.705Z,7.20
2019-04-05T20:14:11.343Z,6.90
2019-04-05T20:16:40.944Z,6.70
2019-04-05T20:19:10.669Z,6.30
2019-04-05T20:21:40.281Z,6.30
2019-04-05T20:24:14.365Z,6.50
2019-04-05T20:26:41.148Z,6.50
2019-04-05T20:29:10.917Z,6.40
2019-04-05T20:31:40.577Z,6.40
2019-04-05T20:34:10.176Z,6.20
2019-04-05T20:36:39.792Z,6.20
2019-04-05T20:39:09.600Z,6.20
2019-04-05T20:41:39.218Z,6.20
2019-04-05T20:44:08.917Z,6.10
2019-04-05T20:46:38.528Z,5.80
2019-04-05T20:49:08.268Z,5.70
2019-04-05T20:51:37.883Z,5.60
2019-04-05T20:54:07.558Z,5.60
2019-04-05T20:56:37.133Z,5.60
2019-04-05T20:59:06.776Z,5.50
2019-04-05T21:01:36.390Z,5.50
2019-04-05T21:04:06.097Z,5.50
2019-04-05T21:06:35.714Z,5.60
2019-04-05T21:09:07.674Z,5.40
2019-04-05T21:11:37.285Z,5.40
2019-04-05T21:14:06.937Z,5.30
2019-04-05T21:16:36.569Z,5.20
2019-04-05T21:19:06.308Z,5.20
2019-04-05T21:21:35.928Z,5.10
2019-04-05T21:24:05.644Z,5.10
2019-04-05T21:26:35.264Z,5.00
2019-04-05T21:29:04.913Z,5.00
2019-04-05T21:31:34.522Z,5.00
2019-04-05T21:34:04.220Z,4.80
2019-04-05T21:36:33.833Z,4.80
2019-04-05T21:39:05.593Z,4.80
2019-04-05T21:41:35.208Z,4.80
2019-04-05T21:44:05.122Z,4.50
2019-04-05T21:46:34.779Z,4.50
2019-04-05T21:49:04.601Z,4.50
2019-04-05T21:51:34.239Z,4.50
2019-04-05T21:54:03.921Z,4.40
2019-04-05T21:56:33.638Z,4.20
2019-04-05T21:59:03.263Z,4.30
2019-04-05T22:01:33.036Z,4.40
2019-04-05T22:04:02.727Z,4.30
2019-04-05T22:06:32.367Z,4.40
2019-04-05T22:09:01.984Z,4.20
2019-04-05T22:11:31.656Z,4.30
2019-04-05T22:14:01.269Z,4.30
2019-04-05T22:16:30.912Z,4.20
2019-04-05T22:19:00.527Z,4.10
2019-04-05T22:21:30.156Z,4.10
2019-04-05T22:23:59.779Z,4.10
2019-04-05T22:26:29.413Z,4.00
2019-04-05T22:28:59.043Z,3.90
2019-04-05T22:31:28.688Z,3.80
2019-04-05T22:33:58.312Z,3.80
2019-04-05T22:36:27.949Z,3.70
2019-04-05T22:38:57.577Z,3.60
2019-04-05T22:41:27.217Z,3.60
2019-04-05T22:43:56.833Z,3.60
2019-04-05T22:46:26.472Z,3.60
2019-04-05T22:48:56.094Z,3.70
2019-04-05T22:51:25.742Z,3.70
2019-04-05T22:53:55.368Z,3.60
2019-04-05T22:56:25.009Z,3.50
2019-04-05T22:58:54.728Z,3.40
2019-04-05T23:01:24.360Z,3.40
2019-04-05T23:03:53.984Z,3.40
2019-04-05T23:06:23.630Z,3.40
2019-04-05T23:08:53.240Z,3.40
2019-04-05T23:11:22.880Z,3.40
2019-04-05T23:13:52.500Z,3.30
2019-04-05T23:16:22.144Z,3.40
2019-04-05T23:18:51.881Z,3.00
2019-04-05T23:21:21.530Z,3.10
2019-04-05T23:23:51.159Z,3.20
2019-04-05T23:26:20.793Z,3.20
2019-04-05T23:28:50.409Z,3.10
2019-04-05T23:31:20.053Z,3.10
2019-04-05T23:33:49.677Z,3.10
2019-04-05T23:36:19.326Z,3.10
2019-04-05T23:38:49.052Z,3.10
2019-04-05T23:41:18.728Z,3.10
2019-04-05T23:43:48.297Z,3.00
2019-04-05T23:46:18.017Z,3.00
2019-04-05T23:48:47.645Z,3.10
2019-04-05T23:51:17.276Z,3.10
2019-04-05T23:53:46.966Z,3.00
2019-04-05T23:56:16.607Z,3.00
2019-04-05T23:58:46.292Z,2.90
